createdAt,value
2019-01-28T00:01:13.124Z,99243.30
2019-01-28T00:03:42.833Z,99231.33
2019-01-28T00:06:12.202Z,99229.39
2019-01-28T00:08:42.353Z,99234.05
2019-01-28T00:11:11.456Z,99228.54
2019-01-28T00:13:40.750Z,99234.66
2019-01-28T00:16:10.464Z,99234.69
2019-01-28T00:18:39.493Z,99258.23
2019-01-28T00:21:08.880Z,99237.28
2019-01-28T00:23:37.965Z,99242.66
2019-01-28T00:26:06.969Z,99244.31
2019-01-28T00:28:36.510Z,99250.13
2019-01-28T00:31:05.994Z,99239.05
2019-01-28T00:33:35.066Z,99232.38
2019-01-28T00:36:04.071Z,99238.05
2019-01-28T00:38:33.450Z,99241.02
2019-01-28T00:41:02.461Z,99248.95
2019-01-28T00:43:32.135Z,99239.55
2019-01-28T00:46:01.184Z,99258.29
2019-01-28T00:48:30.567Z,99263.25
2019-01-28T00:50:59.628Z,99269.52
2019-01-28T00:53:28.675Z,99266.25
2019-01-28T00:55:57.708Z,99258.31
2019-01-28T00:58:26.741Z,99285.01
2019-01-28T01:00:55.793Z,99279.07
2019-01-28T01:03:26.435Z,99267.83
2019-01-28T01:05:55.735Z,99263.72
2019-01-28T01:08:26.373Z,99279.63
2019-01-28T01:10:55.421Z,99256.46
2019-01-28T01:13:24.433Z,99274.64
2019-01-28T01:15:53.491Z,99268.52
2019-01-28T01:18:22.543Z,99269.72
2019-01-28T01:20:51.561Z,99270.86
2019-01-28T01:23:20.632Z,99255.14
2019-01-28T01:25:49.647Z,99261.45
2019-01-28T01:28:18.651Z,99268.25
2019-01-28T01:30:47.667Z,99284.95
2019-01-28T01:33:16.719Z,99267.72
2019-01-28T01:35:45.724Z,99268.34
2019-01-28T01:38:15.115Z,99272.33
2019-01-28T01:40:44.133Z,99269.99
2019-01-28T01:43:13.161Z,99273.31
2019-01-28T01:45:42.206Z,99267.36
2019-01-28T01:48:11.515Z,99269.31
2019-01-28T01:50:40.538Z,99267.64
2019-01-28T01:53:09.868Z,99275.94
2019-01-28T01:55:39.201Z,99270.81
2019-01-28T01:58:08.233Z,99279.25
2019-01-28T02:00:37.619Z,99275.62
2019-01-28T02:03:07.035Z,99278.59
2019-01-28T02:05:36.385Z,99281.78
2019-01-28T02:08:05.611Z,99290.71
2019-01-28T02:10:34.897Z,99277.62
2019-01-28T02:13:04.269Z,99276.24
2019-01-28T02:15:33.285Z,99285.38
2019-01-28T02:18:02.359Z,99298.77
2019-01-28T02:20:31.428Z,99289.83
2019-01-28T02:23:00.431Z,99294.48
2019-01-28T02:25:29.787Z,99293.13
2019-01-28T02:27:58.801Z,99292.84
2019-01-28T02:30:27.796Z,99291.15
2019-01-28T02:32:57.168Z,99291.47
2019-01-28T02:35:26.186Z,99299.47
2019-01-28T02:37:55.605Z,99292.84
2019-01-28T02:40:24.652Z,99291.83
2019-01-28T02:42:53.663Z,99300.80
2019-01-28T02:45:22.702Z,99291.80
2019-01-28T02:47:51.725Z,99296.61
2019-01-28T02:50:20.715Z,99297.71
2019-01-28T02:52:49.715Z,99304.06
2019-01-28T02:55:19.283Z,99287.78
2019-01-28T02:57:48.410Z,99298.20
2019-01-28T03:00:19.959Z,99298.39
2019-01-28T03:02:48.985Z,99297.91
2019-01-28T03:05:19.063Z,99298.70
2019-01-28T03:07:48.256Z,99305.86
2019-01-28T03:10:19.835Z,99310.01
2019-01-28T03:12:49.080Z,99305.36
2019-01-28T03:15:18.610Z,99299.11
2019-01-28T03:17:47.779Z,99300.44
2019-01-28T03:20:17.247Z,99305.27
2019-01-28T03:22:46.877Z,99299.77
2019-01-28T03:25:16.663Z,99299.47
2019-01-28T03:27:46.077Z,99299.80
2019-01-28T03:30:17.432Z,99311.36
2019-01-28T03:32:46.769Z,99298.77
2019-01-28T03:35:16.019Z,99310.08
2019-01-28T03:37:45.056Z,99317.00
2019-01-28T03:40:16.962Z,99316.02
2019-01-28T03:42:46.606Z,99324.66
2019-01-28T03:45:17.421Z,99332.58
2019-01-28T03:47:46.477Z,99332.91
2019-01-28T03:50:16.889Z,99319.35
2019-01-28T03:52:46.881Z,99321.69
2019-01-28T03:55:16.487Z,99313.92
2019-01-28T03:57:45.601Z,99323.84
2019-01-28T04:00:20.142Z,99317.35
2019-01-28T04:02:49.169Z,99330.60
2019-01-28T04:05:18.199Z,99315.53
2019-01-28T04:07:47.233Z,99329.97
2019-01-28T04:10:18.605Z,99323.65
2019-01-28T04:12:48.025Z,99333.23
2019-01-28T04:15:17.900Z,99330.97
2019-01-28T04:17:46.956Z,99336.60
2019-01-28T04:20:17.522Z,99335.59
2019-01-28T04:22:46.566Z,99338.93
2019-01-28T04:25:15.581Z,99340.39
2019-01-28T04:27:45.304Z,99331.95
2019-01-28T04:30:17.107Z,99331.59
2019-01-28T04:32:46.440Z,99341.05
2019-01-28T04:35:15.473Z,99347.70
2019-01-28T04:37:44.848Z,99351.66
2019-01-28T04:40:14.126Z,99339.91
2019-01-28T04:42:43.596Z,99353.70
2019-01-28T04:45:14.626Z,99356.19
2019-01-28T04:47:43.787Z,99358.15
2019-01-28T04:50:17.253Z,99360.11
2019-01-28T04:52:46.291Z,99357.47
2019-01-28T04:55:16.111Z,99362.62
2019-01-28T04:57:45.152Z,99376.05
2019-01-28T05:00:16.754Z,99378.34
2019-01-28T05:02:45.854Z,99372.70
2019-01-28T05:05:15.046Z,99371.70
2019-01-28T05:07:44.162Z,99383.98
2019-01-28T05:10:14.984Z,99381.00
2019-01-28T05:12:44.377Z,99378.67
2019-01-28T05:15:15.032Z,99381.69
2019-01-28T05:17:44.123Z,99381.18
2019-01-28T05:20:15.158Z,99373.05
2019-01-28T05:22:44.587Z,99376.87
2019-01-28T05:25:14.603Z,99398.59
2019-01-28T05:27:43.622Z,99377.38
2019-01-28T05:30:15.668Z,99378.05
2019-01-28T05:32:44.988Z,99393.12
2019-01-28T05:35:15.290Z,99389.63
2019-01-28T05:37:44.305Z,99394.28
2019-01-28T05:40:16.011Z,99394.11
2019-01-28T05:42:45.135Z,99398.27
2019-01-28T05:45:15.274Z,99394.95
2019-01-28T05:47:44.302Z,99398.58
2019-01-28T05:50:13.574Z,99403.22
2019-01-28T05:52:42.638Z,99399.56
2019-01-28T05:55:12.620Z,99401.58
2019-01-28T05:57:41.746Z,99392.78
2019-01-28T06:00:15.411Z,99408.72
2019-01-28T06:02:44.434Z,99407.72
2019-01-28T06:05:13.543Z,99412.53
2019-01-28T06:07:42.645Z,99422.45
2019-01-28T06:10:12.099Z,99422.31
2019-01-28T06:12:41.116Z,99432.40
2019-01-28T06:15:12.501Z,99429.44
2019-01-28T06:17:41.853Z,99439.36
2019-01-28T06:20:14.413Z,99444.00
2019-01-28T06:22:43.920Z,99440.52
2019-01-28T06:25:13.055Z,99446.33
2019-01-28T06:27:42.092Z,99441.18
2019-01-28T06:30:14.870Z,99447.97
2019-01-28T06:32:43.935Z,99444.02
2019-01-28T06:35:13.062Z,99461.89
2019-01-28T06:37:42.511Z,99454.13
2019-01-28T06:40:13.120Z,99454.29
2019-01-28T06:42:42.142Z,99473.19
2019-01-28T06:45:12.274Z,99468.53
2019-01-28T06:47:46.875Z,99473.19
2019-01-28T06:50:14.514Z,99472.69
2019-01-28T06:52:43.837Z,99483.61
2019-01-28T06:55:13.540Z,99493.08
2019-01-28T06:57:42.619Z,99491.74
2019-01-28T07:00:16.419Z,99501.02
2019-01-28T07:02:45.404Z,99504.34
2019-01-28T07:05:14.486Z,99514.60
2019-01-28T07:07:43.506Z,99518.10
2019-01-28T07:10:13.374Z,99516.59
2019-01-28T07:12:42.366Z,99513.61
2019-01-28T07:15:12.608Z,99518.92
2019-01-28T07:17:41.621Z,99512.97
2019-01-28T07:20:14.531Z,99530.84
2019-01-28T07:22:43.806Z,99527.20
2019-01-28T07:25:13.170Z,99530.53
2019-01-28T07:27:42.202Z,99539.83
2019-01-28T07:30:15.123Z,99539.98
2019-01-28T07:32:44.144Z,99540.48
2019-01-28T07:35:15.092Z,99549.42
2019-01-28T07:37:44.439Z,99546.95
2019-01-28T07:40:15.052Z,99554.06
2019-01-28T07:42:44.377Z,99559.55
2019-01-28T07:45:17.376Z,99568.48
2019-01-28T07:47:46.382Z,99573.96
2019-01-28T07:50:15.806Z,99582.91
2019-01-28T07:52:45.281Z,99582.44
2019-01-28T07:55:15.239Z,99582.56
2019-01-28T07:57:44.250Z,99591.53
2019-01-28T08:00:16.680Z,99598.16
2019-01-28T08:02:46.076Z,99596.52
2019-01-28T08:05:15.829Z,99599.84
2019-01-28T08:07:45.175Z,99607.44
2019-01-28T08:10:15.766Z,99608.12
2019-01-28T08:12:44.882Z,99609.46
2019-01-28T08:15:16.574Z,99625.38
2019-01-28T08:17:45.797Z,99626.70
2019-01-28T08:20:16.347Z,99628.03
2019-01-28T08:22:45.490Z,99631.00
2019-01-28T08:25:15.975Z,99640.97
2019-01-28T08:27:45.642Z,99643.63
2019-01-28T08:30:26.622Z,99652.41
2019-01-28T08:32:55.912Z,99656.05
2019-01-28T08:35:25.484Z,99653.73
2019-01-28T08:37:55.136Z,99659.86
2019-01-28T08:40:24.372Z,99664.69
2019-01-28T08:42:53.652Z,99674.80
2019-01-28T08:45:22.659Z,99679.63
2019-01-28T08:47:51.660Z,99678.81
2019-01-28T08:50:22.120Z,99681.78
2019-01-28T08:52:51.545Z,99684.09
2019-01-28T08:55:21.836Z,99684.09
2019-01-28T08:57:51.422Z,99679.80
2019-01-28T09:00:26.124Z,99685.44
2019-01-28T09:02:55.154Z,99698.05
2019-01-28T09:05:24.206Z,99696.09
2019-01-28T09:07:53.487Z,99697.25
2019-01-28T09:10:24.842Z,99709.70
2019-01-28T09:12:54.172Z,99717.67
2019-01-28T09:15:23.272Z,99713.86
2019-01-28T09:17:52.478Z,99722.81
2019-01-28T09:20:22.526Z,99729.14
2019-01-28T09:22:51.635Z,99727.00
2019-01-28T09:25:20.839Z,99728.31
2019-01-28T09:27:50.184Z,99737.93
2019-01-28T09:30:22.038Z,99744.58
2019-01-28T09:32:51.127Z,99749.24
2019-01-28T09:35:20.413Z,99757.47
2019-01-28T09:37:49.485Z,99761.44
2019-01-28T09:40:20.224Z,99764.10
2019-01-28T09:42:50.560Z,99763.30
2019-01-28T09:45:22.080Z,99772.16
2019-01-28T09:47:51.104Z,99780.47
2019-01-28T09:50:20.417Z,99779.77
2019-01-28T09:52:49.841Z,99788.72
2019-01-28T09:55:18.992Z,99787.59
2019-01-28T09:57:48.138Z,99793.93
2019-01-28T10:00:21.316Z,99794.90
2019-01-28T10:02:50.356Z,99803.56
2019-01-28T10:05:19.673Z,99799.28
2019-01-28T10:07:48.710Z,99808.93
2019-01-28T10:10:17.866Z,99815.63
2019-01-28T10:12:46.888Z,99816.28
2019-01-28T10:15:18.013Z,99838.59
2019-01-28T10:17:47.094Z,99849.91
2019-01-28T10:20:37.382Z,99853.91
2019-01-28T10:23:06.468Z,99858.19
2019-01-28T10:25:35.518Z,99860.06
2019-01-28T10:28:04.666Z,99858.61
2019-01-28T10:30:38.469Z,99856.95
2019-01-28T10:33:08.436Z,99854.55
2019-01-28T10:35:38.127Z,99857.77
2019-01-28T10:38:07.633Z,99865.61
2019-01-28T10:40:37.577Z,99873.44
2019-01-28T10:43:08.166Z,99883.78
2019-01-28T10:45:37.186Z,99896.31
2019-01-28T10:48:07.364Z,99904.30
2019-01-28T10:50:37.057Z,99915.21
2019-01-28T10:53:07.204Z,99910.48
2019-01-28T10:55:36.210Z,99904.88
2019-01-28T10:58:05.790Z,99921.91
2019-01-28T11:00:37.143Z,99926.34
2019-01-28T11:03:07.912Z,99926.86
2019-01-28T11:05:37.082Z,99927.84
2019-01-28T11:08:06.704Z,99919.69
2019-01-28T11:10:35.797Z,99930.27
2019-01-28T11:13:05.359Z,99929.99
2019-01-28T11:15:34.633Z,99929.27
2019-01-28T11:18:05.327Z,99943.58
2019-01-28T11:20:34.803Z,99948.32
2019-01-28T11:23:04.350Z,99949.53
2019-01-28T11:25:33.782Z,99959.15
2019-01-28T11:28:02.959Z,99957.64
2019-01-28T11:30:40.672Z,99963.13
2019-01-28T11:33:10.470Z,99963.13
2019-01-28T11:35:40.045Z,99966.80
2019-01-28T11:38:09.348Z,99975.55
2019-01-28T11:40:38.593Z,100003.55
2019-01-28T11:43:07.795Z,100003.90
2019-01-28T11:45:39.435Z,100020.11
2019-01-28T11:48:09.057Z,100020.84
2019-01-28T11:50:38.090Z,100012.22
2019-01-28T11:53:07.130Z,100010.56
2019-01-28T11:55:36.154Z,100011.98
2019-01-28T11:58:05.440Z,100006.16
2019-01-28T12:00:50.505Z,100004.22
2019-01-28T12:03:19.540Z,100005.67
2019-01-28T12:05:48.841Z,100005.00
2019-01-28T12:08:17.896Z,100003.50
2019-01-28T12:10:47.391Z,100007.63
2019-01-28T12:13:16.810Z,100000.89
2019-01-28T12:15:45.862Z,99999.18
2019-01-28T12:18:15.636Z,100001.12
2019-01-28T12:20:53.192Z,100004.72
2019-01-28T12:23:15.848Z,100002.75
2019-01-28T12:25:44.934Z,100011.26
2019-01-28T12:28:13.995Z,100020.34
2019-01-28T12:30:43.340Z,100030.09
2019-01-28T12:33:12.765Z,100030.94
2019-01-28T12:35:41.760Z,100035.05
2019-01-28T12:38:10.826Z,100029.72
2019-01-28T12:40:40.141Z,100035.11
2019-01-28T12:43:09.174Z,100037.13
2019-01-28T12:45:38.450Z,100049.59
2019-01-28T12:48:07.794Z,100050.11
2019-01-28T12:50:36.846Z,100061.59
2019-01-28T12:53:06.143Z,100067.03
2019-01-28T12:55:35.172Z,100071.66
2019-01-28T12:58:04.803Z,100076.22
2019-01-28T13:00:38.836Z,100081.25
2019-01-28T13:03:08.138Z,100081.97
2019-01-28T13:05:37.897Z,100098.05
2019-01-28T13:08:06.949Z,100089.09
2019-01-28T13:10:35.963Z,100099.41
2019-01-28T13:13:05.426Z,100102.42
2019-01-28T13:15:34.917Z,100098.76
2019-01-28T13:18:04.547Z,100097.91
2019-01-28T13:20:33.612Z,100096.77
2019-01-28T13:23:02.712Z,100105.41
2019-01-28T13:25:32.924Z,100111.73
2019-01-28T13:28:02.007Z,100120.90
2019-01-28T13:30:35.269Z,100119.41
2019-01-28T13:33:05.624Z,100122.08
2019-01-28T13:35:34.686Z,100123.22
2019-01-28T13:38:04.056Z,100129.38
2019-01-28T13:40:33.151Z,100137.38
2019-01-28T13:43:02.542Z,100151.04
2019-01-28T13:45:31.639Z,100142.70
2019-01-28T13:48:00.957Z,100146.05
2019-01-28T13:50:30.174Z,100136.70
2019-01-28T13:52:59.855Z,100151.52
2019-01-28T13:55:29.168Z,100155.33
2019-01-28T13:57:58.238Z,100172.95
2019-01-28T14:00:28.333Z,100153.78
2019-01-28T14:02:58.085Z,100161.92
2019-01-28T14:05:27.136Z,100156.09
2019-01-28T14:07:56.849Z,100160.90
2019-01-28T14:10:26.683Z,100165.25
2019-01-28T14:12:56.053Z,100170.57
2019-01-28T14:15:33.423Z,100170.48
2019-01-28T14:18:02.480Z,100177.69
2019-01-28T14:20:32.545Z,100192.31
2019-01-28T14:23:01.629Z,100201.63
2019-01-28T14:25:30.746Z,100214.28
2019-01-28T14:28:00.072Z,100227.36
2019-01-28T14:30:37.988Z,100225.53
2019-01-28T14:33:07.702Z,100231.78
2019-01-28T14:35:37.666Z,100228.17
2019-01-28T14:38:08.103Z,100228.38
2019-01-28T14:40:37.676Z,100231.17
2019-01-28T14:43:06.902Z,100239.61
2019-01-28T14:45:36.754Z,100242.17
2019-01-28T14:48:07.096Z,100242.12
2019-01-28T14:50:37.040Z,100243.02
2019-01-28T14:53:07.154Z,100248.89
2019-01-28T14:55:37.449Z,100241.80
2019-01-28T14:58:08.535Z,100248.50
2019-01-28T15:00:38.588Z,100249.91
2019-01-28T15:03:07.974Z,100260.34
2019-01-28T15:05:37.585Z,100253.33
2019-01-28T15:08:06.985Z,100252.00
2019-01-28T15:10:36.571Z,100251.98
2019-01-28T15:13:06.178Z,100251.31
2019-01-28T15:15:36.758Z,100258.34
2019-01-28T15:18:07.646Z,100250.49
2019-01-28T15:20:37.035Z,100261.31
2019-01-28T15:23:07.358Z,100261.81
2019-01-28T15:25:38.191Z,100263.97
2019-01-28T15:28:07.748Z,100275.98
2019-01-28T15:30:37.214Z,100283.98
2019-01-28T15:33:06.460Z,100286.14
2019-01-28T15:35:35.532Z,100286.30
2019-01-28T15:38:04.952Z,100292.23
2019-01-28T15:40:35.195Z,100288.16
2019-01-28T15:43:04.235Z,100288.70
2019-01-28T15:45:35.707Z,100292.25
2019-01-28T15:48:05.394Z,100298.67
2019-01-28T15:50:34.456Z,100300.38
2019-01-28T15:53:04.039Z,100311.41
2019-01-28T15:55:35.473Z,100311.53
2019-01-28T15:58:04.814Z,100317.98
2019-01-28T16:00:34.407Z,100321.02
2019-01-28T16:03:04.544Z,100335.38
2019-01-28T16:05:33.577Z,100340.30
2019-01-28T16:08:02.653Z,100335.77
2019-01-28T16:10:31.682Z,100343.53
2019-01-28T16:13:00.706Z,100344.30
2019-01-28T16:15:32.743Z,100342.86
2019-01-28T16:18:02.117Z,100347.86
2019-01-28T16:20:31.115Z,100351.84
2019-01-28T16:23:00.538Z,100336.56
2019-01-28T16:25:29.544Z,100346.16
2019-01-28T16:27:58.613Z,100353.16
2019-01-28T16:30:28.372Z,100365.89
2019-01-28T16:32:57.579Z,100370.52
2019-01-28T16:35:27.239Z,100387.50
2019-01-28T16:37:56.412Z,100397.80
2019-01-28T16:40:26.634Z,100417.15
2019-01-28T16:42:56.062Z,100418.83
2019-01-28T16:45:25.279Z,100427.13
2019-01-28T16:47:54.555Z,100428.73
2019-01-28T16:50:28.587Z,100431.91
2019-01-28T16:52:58.107Z,100420.66
2019-01-28T16:55:27.431Z,100426.66
2019-01-28T16:57:57.249Z,100425.88
2019-01-28T17:00:28.757Z,100432.47
2019-01-28T17:02:57.763Z,100439.87
2019-01-28T17:05:27.548Z,100441.98
2019-01-28T17:07:57.245Z,100456.89
2019-01-28T17:10:26.384Z,100460.23
2019-01-28T17:12:55.409Z,100459.77
2019-01-28T17:15:25.316Z,100461.66
2019-01-28T17:17:54.390Z,100465.72
2019-01-28T17:20:25.448Z,100475.80
2019-01-28T17:22:54.672Z,100480.06
2019-01-28T17:25:26.390Z,100484.75
2019-01-28T17:27:56.130Z,100485.03
2019-01-28T17:30:30.811Z,100492.50
2019-01-28T17:33:00.248Z,100488.52
2019-01-28T17:35:29.310Z,100498.86
2019-01-28T17:37:58.405Z,100503.03
2019-01-28T17:40:28.024Z,100502.89
2019-01-28T17:42:57.465Z,100496.12
2019-01-28T17:45:27.892Z,100496.83
2019-01-28T17:47:57.128Z,100502.05
2019-01-28T17:50:27.123Z,100503.53
2019-01-28T17:52:56.241Z,100510.69
2019-01-28T17:55:25.609Z,100515.72
2019-01-28T17:57:55.244Z,100517.90
2019-01-28T18:00:37.634Z,100522.71
2019-01-28T18:03:07.048Z,100525.36
2019-01-28T18:05:36.376Z,100530.72
2019-01-28T18:08:06.639Z,100535.05
2019-01-28T18:10:35.755Z,100537.64
2019-01-28T18:13:05.945Z,100541.68
2019-01-28T18:15:34.961Z,100546.98
2019-01-28T18:18:03.994Z,100547.72
2019-01-28T18:20:33.341Z,100549.22
2019-01-28T18:23:02.896Z,100549.94
2019-01-28T18:25:32.652Z,100543.43
2019-01-28T18:28:02.102Z,100544.08
2019-01-28T18:30:40.043Z,100553.70
2019-01-28T18:33:09.801Z,100558.17
2019-01-28T18:35:39.208Z,100553.77
2019-01-28T18:38:08.959Z,100563.13
2019-01-28T18:40:37.999Z,100564.73
2019-01-28T18:43:07.416Z,100570.19
2019-01-28T18:45:36.654Z,100571.50
2019-01-28T18:48:07.403Z,100569.75
2019-01-28T18:50:36.553Z,100570.80
2019-01-28T18:53:06.155Z,100572.28
2019-01-28T18:55:35.541Z,100583.32
2019-01-28T18:58:04.961Z,100581.36
2019-01-28T19:00:34.239Z,100584.83
2019-01-28T19:03:03.946Z,100589.03
2019-01-28T19:05:54.971Z,100594.55
2019-01-28T19:08:46.771Z,100590.02
2019-01-28T19:11:43.850Z,100597.70
2019-01-28T19:14:28.005Z,100594.05
2019-01-28T19:17:34.362Z,100602.58
2019-01-28T19:20:30.168Z,100599.84
2019-01-28T19:22:59.603Z,100606.89
2019-01-28T19:25:28.660Z,100605.98
2019-01-28T19:27:57.700Z,100605.50
2019-01-28T19:30:26.708Z,100615.84
2019-01-28T19:32:55.777Z,100618.08
2019-01-28T19:35:24.822Z,100620.73
2019-01-28T19:37:53.837Z,100627.30
2019-01-28T19:40:22.870Z,100630.22
2019-01-28T19:42:52.141Z,100630.91
2019-01-28T19:45:21.597Z,100631.20
2019-01-28T19:47:50.774Z,100629.22
2019-01-28T19:50:24.401Z,100628.39
2019-01-28T19:52:53.443Z,100630.75
2019-01-28T19:55:22.681Z,100633.99
2019-01-28T19:57:51.838Z,100636.38
2019-01-28T20:00:23.419Z,100632.40
2019-01-28T20:02:53.044Z,100633.50
2019-01-28T20:05:22.085Z,100640.69
2019-01-28T20:07:51.264Z,100636.28
2019-01-28T20:10:20.659Z,100636.91
2019-01-28T20:12:49.750Z,100639.63
2019-01-28T20:15:19.928Z,100647.66
2019-01-28T20:17:49.387Z,100641.52
2019-01-28T20:20:18.896Z,100647.98
2019-01-28T20:22:48.406Z,100644.91
2019-01-28T20:25:18.147Z,100646.42
2019-01-28T20:27:47.145Z,100647.05
2019-01-28T20:30:24.529Z,100645.20
2019-01-28T20:32:53.938Z,100642.81
2019-01-28T20:35:23.249Z,100646.79
2019-01-28T20:37:52.615Z,100634.35
2019-01-28T20:40:21.777Z,100650.77
2019-01-28T20:42:50.882Z,100656.19
2019-01-28T20:45:21.559Z,100663.89
2019-01-28T20:47:50.643Z,100659.40
2019-01-28T20:50:21.806Z,100660.87
2019-01-28T20:52:50.886Z,100658.73
2019-01-28T20:55:19.975Z,100665.10
2019-01-28T20:57:49.066Z,100660.36
2019-01-28T21:00:20.243Z,100664.59
2019-01-28T21:02:49.271Z,100657.52
2019-01-28T21:05:18.984Z,100666.91
2019-01-28T21:07:47.986Z,100668.67
2019-01-28T21:10:18.507Z,100667.99
2019-01-28T21:12:48.509Z,100661.76
2019-01-28T21:15:17.648Z,100660.91
2019-01-28T21:17:47.351Z,100658.15
2019-01-28T21:20:17.626Z,100660.02
2019-01-28T21:22:47.007Z,100662.80
2019-01-28T21:25:18.599Z,100668.56
2019-01-28T21:27:47.615Z,100672.77
2019-01-28T21:30:19.854Z,100678.39
2019-01-28T21:32:49.588Z,100685.81
2019-01-28T21:35:20.951Z,100685.09
2019-01-28T21:38:00.416Z,100681.89
2019-01-28T21:40:26.403Z,100676.59
2019-01-28T21:42:55.847Z,100676.41
2019-01-28T21:45:24.924Z,100674.75
2019-01-28T21:47:54.399Z,100675.56
2019-01-28T21:50:24.961Z,100677.02
2019-01-28T21:52:54.350Z,100677.30
2019-01-28T21:55:23.410Z,100682.45
2019-01-28T21:57:52.447Z,100686.55
2019-01-28T22:00:21.973Z,100694.99
2019-01-28T22:02:51.018Z,100695.00
2019-01-28T22:05:20.163Z,100697.72
2019-01-28T22:07:49.279Z,100691.36
2019-01-28T22:10:18.311Z,100694.37
2019-01-28T22:12:47.495Z,100685.46
2019-01-28T22:15:17.190Z,100694.12
2019-01-28T22:17:46.302Z,100699.23
2019-01-28T22:20:15.711Z,100693.64
2019-01-28T22:22:45.049Z,100698.37
2019-01-28T22:25:15.003Z,100704.54
2019-01-28T22:27:44.200Z,100713.33
2019-01-28T22:30:16.193Z,100707.16
2019-01-28T22:32:45.203Z,100712.15
2019-01-28T22:35:14.369Z,100716.03
2019-01-28T22:37:43.797Z,100712.63
2019-01-28T22:40:13.666Z,100723.10
2019-01-28T22:42:42.678Z,100727.26
2019-01-28T22:45:14.377Z,100735.21
2019-01-28T22:47:43.837Z,100732.63
2019-01-28T22:50:15.145Z,100729.97
2019-01-28T22:52:45.201Z,100735.21
2019-01-28T22:55:16.101Z,100733.52
2019-01-28T22:57:45.110Z,100737.98
2019-01-28T23:00:39.561Z,100733.52
2019-01-28T23:03:08.941Z,100725.45
2019-01-28T23:05:38.359Z,100727.26
2019-01-28T23:08:07.465Z,100721.92
2019-01-28T23:10:36.695Z,100727.67
2019-01-28T23:13:05.983Z,100722.48
2019-01-28T23:15:35.017Z,100727.72
2019-01-28T23:18:04.199Z,100724.66
2019-01-28T23:20:33.238Z,100721.81
2019-01-28T23:23:02.633Z,100725.91
2019-01-28T23:25:31.704Z,100716.80
2019-01-28T23:28:00.721Z,100716.70
2019-01-28T23:30:29.728Z,100722.11
2019-01-28T23:32:59.120Z,100712.91
2019-01-28T23:35:28.269Z,100717.24
2019-01-28T23:37:58.045Z,100717.22
2019-01-28T23:40:27.129Z,100712.31
2019-01-28T23:42:57.688Z,100710.98
2019-01-28T23:45:26.708Z,100709.27
2019-01-28T23:47:56.047Z,100714.02
2019-01-28T23:50:25.104Z,100711.78
2019-01-28T23:52:54.117Z,100714.07
2019-01-28T23:55:23.145Z,100714.07
2019-01-28T23:57:56.829Z,100716.83
